Colonia Elisa, Argentina
Current Conditions -  °F | °C
As of 3:00 AM on Sunday 21 Dec 2014 (Local Time) from SARE Reporting Station
Moderate Rain Moderate Rain  
Wind Chill: 73°   Ceiling: 4000
Heat Index: 73°   Visibility: 2.5mi
Dew Point: 70°   Wind: 5mph
Humidity: 88%   Direction: 180°S
Pressure: 29.53"   Gusts: NA
Location:  26.67°S, 59.67°W
Report Text: SARE 210600Z 18004KT 4000 RA SCT020 OVC040 FEW056CB 23/21 Q1000
Loading
Personal Weather Stations






























Interactive Weather Map New forecast layout! Learn more

10-Day Weather Forecast

Advertisements
Track Severe Weather on mobile